sensor_id;sensor_type;location;lat;lon;timestamp;P1;durP1;ratioP1;P2;durP2;ratioP2
33188;SDS011;52601;53.070;10.600;2023-04-25T00:00:09;7.73;;;2.60;;
33188;SDS011;52601;53.070;10.600;2023-04-25T00:05:45;4.63;;;2.60;;
33188;SDS011;52601;53.070;10.600;2023-04-25T00:08:30;4.37;;;2.80;;
33188;SDS011;52601;53.070;10.600;2023-04-25T00:11:16;4.72;;;2.45;;
33188;SDS011;52601;53.070;10.600;2023-04-25T00:14:01;6.95;;;3.08;;
33188;SDS011;52601;53.070;10.600;2023-04-25T00:16:47;5.68;;;2.70;;
33188;SDS011;52601;53.070;10.600;2023-04-25T00:19:33;4.63;;;2.40;;
33188;SDS011;52601;53.070;10.600;2023-04-25T00:25:05;6.82;;;2.75;;
33188;SDS011;52601;53.070;10.600;2023-04-25T00:30:37;4.03;;;1.75;;
33188;SDS011;52601;53.070;10.600;2023-04-25T00:36:09;5.05;;;2.42;;
33188;SDS011;52601;53.070;10.600;2023-04-25T00:38:54;3.42;;;2.08;;
33188;SDS011;52601;53.070;10.600;2023-04-25T00:41:41;6.22;;;2.30;;
33188;SDS011;52601;53.070;10.600;2023-04-25T00:44:26;5.68;;;2.08;;
33188;SDS011;52601;53.070;10.600;2023-04-25T00:49:58;6.18;;;2.33;;
33188;SDS011;52601;53.070;10.600;2023-04-25T00:52:44;6.45;;;2.35;;
33188;SDS011;52601;53.070;10.600;2023-04-25T00:55:30;4.43;;;2.65;;
33188;SDS011;52601;53.070;10.600;2023-04-25T00:58:19;5.05;;;2.30;;
33188;SDS011;52601;53.070;10.600;2023-04-25T01:01:06;5.47;;;2.53;;
33188;SDS011;52601;53.070;10.600;2023-04-25T01:03:52;9.38;;;3.08;;
33188;SDS011;52601;53.070;10.600;2023-04-25T01:06:40;3.38;;;2.47;;
33188;SDS011;52601;53.070;10.600;2023-04-25T01:09:25;7.18;;;2.78;;
33188;SDS011;52601;53.070;10.600;2023-04-25T01:12:11;3.47;;;2.43;;
33188;SDS011;52601;53.070;10.600;2023-04-25T01:14:56;10.73;;;2.33;;
33188;SDS011;52601;53.070;10.600;2023-04-25T01:17:42;7.43;;;3.30;;
33188;SDS011;52601;53.070;10.600;2023-04-25T01:20:29;3.92;;;2.83;;
33188;SDS011;52601;53.070;10.600;2023-04-25T01:23:17;9.25;;;3.20;;
33188;SDS011;52601;53.070;10.600;2023-04-25T01:26:04;6.88;;;3.08;;
33188;SDS011;52601;53.070;10.600;2023-04-25T01:28:50;7.60;;;2.58;;
33188;SDS011;52601;53.070;10.600;2023-04-25T01:31:36;10.35;;;3.25;;
33188;SDS011;52601;53.070;10.600;2023-04-25T01:34:23;8.15;;;2.70;;
33188;SDS011;52601;53.070;10.600;2023-04-25T01:37:09;4.47;;;2.75;;
33188;SDS011;52601;53.070;10.600;2023-04-25T01:39:54;7.50;;;3.17;;
33188;SDS011;52601;53.070;10.600;2023-04-25T01:42:41;7.88;;;2.97;;
33188;SDS011;52601;53.070;10.600;2023-04-25T01:45:28;7.25;;;3.40;;
33188;SDS011;52601;53.070;10.600;2023-04-25T01:48:13;7.03;;;2.72;;
33188;SDS011;52601;53.070;10.600;2023-04-25T01:50:59;4.88;;;2.83;;
33188;SDS011;52601;53.070;10.600;2023-04-25T01:53:45;5.03;;;3.05;;
33188;SDS011;52601;53.070;10.600;2023-04-25T01:56:31;5.32;;;2.80;;
33188;SDS011;52601;53.070;10.600;2023-04-25T01:59:18;7.18;;;3.25;;
33188;SDS011;52601;53.070;10.600;2023-04-25T02:02:05;6.32;;;3.03;;
33188;SDS011;52601;53.070;10.600;2023-04-25T02:04:50;9.20;;;3.33;;
33188;SDS011;52601;53.070;10.600;2023-04-25T02:07:36;7.75;;;4.10;;
33188;SDS011;52601;53.070;10.600;2023-04-25T02:10:21;8.70;;;3.63;;
33188;SDS011;52601;53.070;10.600;2023-04-25T02:13:07;7.68;;;3.20;;
33188;SDS011;52601;53.070;10.600;2023-04-25T02:15:52;7.67;;;3.20;;
33188;SDS011;52601;53.070;10.600;2023-04-25T02:18:38;13.93;;;3.10;;
33188;SDS011;52601;53.070;10.600;2023-04-25T02:21:24;5.55;;;2.40;;
33188;SDS011;52601;53.070;10.600;2023-04-25T02:24:09;8.43;;;2.70;;
33188;SDS011;52601;53.070;10.600;2023-04-25T02:26:55;13.60;;;3.90;;
33188;SDS011;52601;53.070;10.600;2023-04-25T02:29:40;16.65;;;3.83;;
33188;SDS011;52601;53.070;10.600;2023-04-25T02:32:26;10.47;;;2.47;;
33188;SDS011;52601;53.070;10.600;2023-04-25T02:35:12;10.70;;;3.20;;
33188;SDS011;52601;53.070;10.600;2023-04-25T02:37:57;13.52;;;2.20;;
33188;SDS011;52601;53.070;10.600;2023-04-25T02:40:43;13.45;;;3.95;;
33188;SDS011;52601;53.070;10.600;2023-04-25T02:43:28;12.68;;;3.63;;
33188;SDS011;52601;53.070;10.600;2023-04-25T02:46:14;10.43;;;2.95;;
33188;SDS011;52601;53.070;10.600;2023-04-25T02:49:09;22.40;;;3.35;;
33188;SDS011;52601;53.070;10.600;2023-04-25T02:51:55;14.53;;;3.90;;
33188;SDS011;52601;53.070;10.600;2023-04-25T02:54:40;9.30;;;3.13;;
33188;SDS011;52601;53.070;10.600;2023-04-25T02:57:26;14.37;;;3.67;;
33188;SDS011;52601;53.070;10.600;2023-04-25T03:00:12;19.13;;;4.05;;
33188;SDS011;52601;53.070;10.600;2023-04-25T03:02:59;17.25;;;4.82;;
33188;SDS011;52601;53.070;10.600;2023-04-25T03:05:45;31.17;;;4.88;;
33188;SDS011;52601;53.070;10.600;2023-04-25T03:08:32;25.30;;;4.45;;
33188;SDS011;52601;53.070;10.600;2023-04-25T03:11:19;12.05;;;3.08;;
33188;SDS011;52601;53.070;10.600;2023-04-25T03:14:05;13.50;;;3.65;;
33188;SDS011;52601;53.070;10.600;2023-04-25T03:16:51;15.80;;;4.17;;
33188;SDS011;52601;53.070;10.600;2023-04-25T03:19:37;12.43;;;4.32;;
33188;SDS011;52601;53.070;10.600;2023-04-25T03:22:22;18.33;;;3.87;;
33188;SDS011;52601;53.070;10.600;2023-04-25T03:25:09;18.63;;;3.90;;
33188;SDS011;52601;53.070;10.600;2023-04-25T03:27:54;12.27;;;4.20;;
33188;SDS011;52601;53.070;10.600;2023-04-25T03:30:40;13.13;;;4.28;;
33188;SDS011;52601;53.070;10.600;2023-04-25T03:33:26;13.20;;;3.65;;
33188;SDS011;52601;53.070;10.600;2023-04-25T03:36:12;6.83;;;2.67;;
33188;SDS011;52601;53.070;10.600;2023-04-25T03:38:57;14.07;;;4.45;;
33188;SDS011;52601;53.070;10.600;2023-04-25T03:41:42;14.25;;;4.07;;
33188;SDS011;52601;53.070;10.600;2023-04-25T03:44:28;15.55;;;4.88;;
33188;SDS011;52601;53.070;10.600;2023-04-25T03:47:13;16.95;;;3.65;;
33188;SDS011;52601;53.070;10.600;2023-04-25T03:49:59;14.70;;;3.80;;
33188;SDS011;52601;53.070;10.600;2023-04-25T03:52:46;14.30;;;4.28;;
33188;SDS011;52601;53.070;10.600;2023-04-25T03:55:32;12.82;;;3.88;;
33188;SDS011;52601;53.070;10.600;2023-04-25T03:58:17;20.55;;;4.07;;
33188;SDS011;52601;53.070;10.600;2023-04-25T04:01:03;16.50;;;3.40;;
33188;SDS011;52601;53.070;10.600;2023-04-25T04:03:52;14.10;;;3.92;;
33188;SDS011;52601;53.070;10.600;2023-04-25T04:09:24;13.75;;;4.50;;
33188;SDS011;52601;53.070;10.600;2023-04-25T04:12:10;16.63;;;4.18;;
33188;SDS011;52601;53.070;10.600;2023-04-25T04:14:55;11.05;;;3.63;;
33188;SDS011;52601;53.070;10.600;2023-04-25T04:17:40;17.05;;;3.38;;
33188;SDS011;52601;53.070;10.600;2023-04-25T04:20:26;9.38;;;3.13;;
33188;SDS011;52601;53.070;10.600;2023-04-25T04:23:12;21.90;;;4.33;;
33188;SDS011;52601;53.070;10.600;2023-04-25T04:25:57;11.47;;;3.97;;
33188;SDS011;52601;53.070;10.600;2023-04-25T04:28:43;9.77;;;3.60;;
33188;SDS011;52601;53.070;10.600;2023-04-25T04:31:31;13.15;;;3.72;;
33188;SDS011;52601;53.070;10.600;2023-04-25T04:34:18;14.02;;;3.53;;
33188;SDS011;52601;53.070;10.600;2023-04-25T04:37:03;17.00;;;3.58;;
33188;SDS011;52601;53.070;10.600;2023-04-25T04:39:49;16.80;;;4.63;;
33188;SDS011;52601;53.070;10.600;2023-04-25T04:45:21;14.43;;;4.30;;
33188;SDS011;52601;53.070;10.600;2023-04-25T04:48:07;25.20;;;4.50;;
33188;SDS011;52601;53.070;10.600;2023-04-25T04:50:53;17.10;;;3.55;;
33188;SDS011;52601;53.070;10.600;2023-04-25T04:53:39;15.50;;;4.22;;
33188;SDS011;52601;53.070;10.600;2023-04-25T04:56:24;11.70;;;3.70;;
33188;SDS011;52601;53.070;10.600;2023-04-25T04:59:10;11.95;;;3.90;;
33188;SDS011;52601;53.070;10.600;2023-04-25T05:01:55;15.40;;;3.60;;
33188;SDS011;52601;53.070;10.600;2023-04-25T05:04:41;15.30;;;3.67;;
33188;SDS011;52601;53.070;10.600;2023-04-25T05:07:26;11.30;;;3.70;;
33188;SDS011;52601;53.070;10.600;2023-04-25T05:10:12;15.93;;;3.58;;
33188;SDS011;52601;53.070;10.600;2023-04-25T05:12:57;12.95;;;3.30;;
33188;SDS011;52601;53.070;10.600;2023-04-25T05:15:42;15.10;;;3.97;;
33188;SDS011;52601;53.070;10.600;2023-04-25T05:18:28;9.40;;;3.23;;
33188;SDS011;52601;53.070;10.600;2023-04-25T05:21:14;24.83;;;4.13;;
33188;SDS011;52601;53.070;10.600;2023-04-25T05:23:59;14.32;;;4.25;;
33188;SDS011;52601;53.070;10.600;2023-04-25T05:26:45;6.60;;;2.55;;
33188;SDS011;52601;53.070;10.600;2023-04-25T05:29:30;10.15;;;2.90;;
33188;SDS011;52601;53.070;10.600;2023-04-25T05:32:16;9.38;;;2.72;;
33188;SDS011;52601;53.070;10.600;2023-04-25T05:37:48;16.55;;;3.25;;
33188;SDS011;52601;53.070;10.600;2023-04-25T05:40:34;5.28;;;2.28;;
33188;SDS011;52601;53.070;10.600;2023-04-25T05:43:19;12.73;;;2.28;;
33188;SDS011;52601;53.070;10.600;2023-04-25T05:46:04;9.88;;;2.53;;
33188;SDS011;52601;53.070;10.600;2023-04-25T05:48:50;4.63;;;1.67;;
33188;SDS011;52601;53.070;10.600;2023-04-25T05:51:36;3.67;;;1.20;;
33188;SDS011;52601;53.070;10.600;2023-04-25T05:54:22;4.97;;;1.75;;
33188;SDS011;52601;53.070;10.600;2023-04-25T05:57:07;9.90;;;2.20;;
33188;SDS011;52601;53.070;10.600;2023-04-25T05:59:53;8.75;;;2.08;;
33188;SDS011;52601;53.070;10.600;2023-04-25T06:02:38;10.32;;;2.20;;
33188;SDS011;52601;53.070;10.600;2023-04-25T06:05:24;5.90;;;1.85;;
33188;SDS011;52601;53.070;10.600;2023-04-25T06:08:10;6.90;;;2.65;;
33188;SDS011;52601;53.070;10.600;2023-04-25T06:10:56;10.18;;;1.92;;
33188;SDS011;52601;53.070;10.600;2023-04-25T06:13:41;6.05;;;1.90;;
33188;SDS011;52601;53.070;10.600;2023-04-25T06:16:27;4.80;;;1.80;;
33188;SDS011;52601;53.070;10.600;2023-04-25T06:19:12;2.97;;;1.52;;
33188;SDS011;52601;53.070;10.600;2023-04-25T06:21:58;5.75;;;1.85;;
33188;SDS011;52601;53.070;10.600;2023-04-25T06:24:43;5.93;;;1.70;;
33188;SDS011;52601;53.070;10.600;2023-04-25T06:27:29;4.97;;;1.23;;
33188;SDS011;52601;53.070;10.600;2023-04-25T06:30:14;3.03;;;1.30;;
33188;SDS011;52601;53.070;10.600;2023-04-25T06:35:46;3.72;;;2.00;;
33188;SDS011;52601;53.070;10.600;2023-04-25T06:38:32;3.35;;;1.45;;
33188;SDS011;52601;53.070;10.600;2023-04-25T06:41:19;7.82;;;1.38;;
33188;SDS011;52601;53.070;10.600;2023-04-25T06:44:05;5.13;;;1.63;;
33188;SDS011;52601;53.070;10.600;2023-04-25T06:46:51;9.68;;;2.10;;
33188;SDS011;52601;53.070;10.600;2023-04-25T06:49:37;6.22;;;2.42;;
33188;SDS011;52601;53.070;10.600;2023-04-25T06:52:22;5.07;;;1.48;;
33188;SDS011;52601;53.070;10.600;2023-04-25T06:55:08;5.13;;;1.48;;
33188;SDS011;52601;53.070;10.600;2023-04-25T06:57:54;4.45;;;1.05;;
33188;SDS011;52601;53.070;10.600;2023-04-25T07:00:40;7.30;;;1.63;;
33188;SDS011;52601;53.070;10.600;2023-04-25T07:03:25;2.85;;;1.83;;
33188;SDS011;52601;53.070;10.600;2023-04-25T07:06:11;4.63;;;1.45;;
33188;SDS011;52601;53.070;10.600;2023-04-25T07:08:56;6.85;;;1.65;;
33188;SDS011;52601;53.070;10.600;2023-04-25T07:11:42;4.68;;;1.73;;
33188;SDS011;52601;53.070;10.600;2023-04-25T07:14:27;4.75;;;2.35;;
33188;SDS011;52601;53.070;10.600;2023-04-25T07:17:13;6.85;;;2.13;;
33188;SDS011;52601;53.070;10.600;2023-04-25T07:20:01;4.30;;;1.52;;
33188;SDS011;52601;53.070;10.600;2023-04-25T07:22:47;5.25;;;1.67;;
33188;SDS011;52601;53.070;10.600;2023-04-25T07:25:32;5.50;;;2.13;;
33188;SDS011;52601;53.070;10.600;2023-04-25T07:28:17;5.53;;;1.75;;
33188;SDS011;52601;53.070;10.600;2023-04-25T07:31:03;3.78;;;1.42;;
33188;SDS011;52601;53.070;10.600;2023-04-25T07:36:35;1.58;;;0.82;;
33188;SDS011;52601;53.070;10.600;2023-04-25T07:39:20;3.92;;;1.55;;
33188;SDS011;52601;53.070;10.600;2023-04-25T07:42:08;1.45;;;0.90;;
33188;SDS011;52601;53.070;10.600;2023-04-25T07:44:53;10.13;;;1.83;;
33188;SDS011;52601;53.070;10.600;2023-04-25T07:47:39;3.67;;;1.38;;
33188;SDS011;52601;53.070;10.600;2023-04-25T07:50:25;6.10;;;1.37;;
33188;SDS011;52601;53.070;10.600;2023-04-25T07:53:10;3.10;;;1.67;;
33188;SDS011;52601;53.070;10.600;2023-04-25T07:55:56;6.50;;;2.05;;
33188;SDS011;52601;53.070;10.600;2023-04-25T07:58:42;6.47;;;1.47;;
33188;SDS011;52601;53.070;10.600;2023-04-25T08:01:27;9.35;;;1.48;;
33188;SDS011;52601;53.070;10.600;2023-04-25T08:04:13;4.00;;;1.73;;
33188;SDS011;52601;53.070;10.600;2023-04-25T08:06:59;1.92;;;0.90;;
33188;SDS011;52601;53.070;10.600;2023-04-25T08:09:45;3.57;;;1.10;;
33188;SDS011;52601;53.070;10.600;2023-04-25T08:12:30;2.75;;;1.00;;
33188;SDS011;52601;53.070;10.600;2023-04-25T08:15:16;1.65;;;1.00;;
33188;SDS011;52601;53.070;10.600;2023-04-25T08:18:01;6.20;;;1.60;;
33188;SDS011;52601;53.070;10.600;2023-04-25T08:20:47;1.15;;;0.77;;
33188;SDS011;52601;53.070;10.600;2023-04-25T08:23:33;5.20;;;1.08;;
33188;SDS011;52601;53.070;10.600;2023-04-25T08:26:18;3.42;;;1.25;;
33188;SDS011;52601;53.070;10.600;2023-04-25T08:29:03;5.85;;;1.45;;
33188;SDS011;52601;53.070;10.600;2023-04-25T08:31:50;4.03;;;1.35;;
33188;SDS011;52601;53.070;10.600;2023-04-25T08:34:38;5.93;;;1.85;;
33188;SDS011;52601;53.070;10.600;2023-04-25T08:37:27;2.80;;;1.52;;
33188;SDS011;52601;53.070;10.600;2023-04-25T08:40:13;4.00;;;1.25;;
33188;SDS011;52601;53.070;10.600;2023-04-25T08:43:00;10.73;;;1.65;;
33188;SDS011;52601;53.070;10.600;2023-04-25T08:45:48;2.75;;;1.10;;
33188;SDS011;52601;53.070;10.600;2023-04-25T08:48:34;1.65;;;1.05;;
33188;SDS011;52601;53.070;10.600;2023-04-25T08:51:23;1.48;;;0.60;;
33188;SDS011;52601;53.070;10.600;2023-04-25T08:54:11;11.82;;;1.73;;
33188;SDS011;52601;53.070;10.600;2023-04-25T08:57:01;5.28;;;1.83;;
33188;SDS011;52601;53.070;10.600;2023-04-25T08:59:47;2.53;;;0.90;;
33188;SDS011;52601;53.070;10.600;2023-04-25T09:02:34;4.50;;;1.15;;
33188;SDS011;52601;53.070;10.600;2023-04-25T09:05:19;2.97;;;0.68;;
33188;SDS011;52601;53.070;10.600;2023-04-25T09:08:05;1.52;;;0.85;;
33188;SDS011;52601;53.070;10.600;2023-04-25T09:10:51;4.43;;;0.40;;
33188;SDS011;52601;53.070;10.600;2023-04-25T09:13:36;2.40;;;0.60;;
33188;SDS011;52601;53.070;10.600;2023-04-25T09:16:22;1.48;;;0.40;;
33188;SDS011;52601;53.070;10.600;2023-04-25T09:19:08;0.75;;;0.43;;
33188;SDS011;52601;53.070;10.600;2023-04-25T09:22:21;0.90;;;0.60;;
33188;SDS011;52601;53.070;10.600;2023-04-25T09:25:09;5.32;;;0.90;;
33188;SDS011;52601;53.070;10.600;2023-04-25T09:27:56;4.70;;;1.00;;
33188;SDS011;52601;53.070;10.600;2023-04-25T09:30:41;2.63;;;1.13;;
33188;SDS011;52601;53.070;10.600;2023-04-25T09:33:31;2.65;;;1.10;;
33188;SDS011;52601;53.070;10.600;2023-04-25T09:36:18;3.03;;;1.38;;
33188;SDS011;52601;53.070;10.600;2023-04-25T09:39:12;2.15;;;1.13;;
33188;SDS011;52601;53.070;10.600;2023-04-25T09:42:00;2.28;;;1.10;;
33188;SDS011;52601;53.070;10.600;2023-04-25T09:44:47;5.97;;;0.80;;
33188;SDS011;52601;53.070;10.600;2023-04-25T09:47:36;0.97;;;0.60;;
33188;SDS011;52601;53.070;10.600;2023-04-25T09:50:23;3.88;;;0.90;;
33188;SDS011;52601;53.070;10.600;2023-04-25T09:53:09;1.35;;;0.90;;
33188;SDS011;52601;53.070;10.600;2023-04-25T09:55:56;2.75;;;0.93;;
33188;SDS011;52601;53.070;10.600;2023-04-25T09:58:42;1.90;;;0.85;;
33188;SDS011;52601;53.070;10.600;2023-04-25T10:01:28;3.13;;;0.47;;
33188;SDS011;52601;53.070;10.600;2023-04-25T10:04:14;2.22;;;0.50;;
33188;SDS011;52601;53.070;10.600;2023-04-25T10:07:05;4.03;;;0.60;;
33188;SDS011;52601;53.070;10.600;2023-04-25T10:09:54;3.38;;;0.70;;
33188;SDS011;52601;53.070;10.600;2023-04-25T10:12:44;2.33;;;0.60;;
33188;SDS011;52601;53.070;10.600;2023-04-25T10:15:31;3.40;;;0.70;;
33188;SDS011;52601;53.070;10.600;2023-04-25T10:18:25;3.47;;;0.47;;
33188;SDS011;52601;53.070;10.600;2023-04-25T10:21:12;1.58;;;0.98;;
33188;SDS011;52601;53.070;10.600;2023-04-25T10:23:59;1.88;;;0.60;;
33188;SDS011;52601;53.070;10.600;2023-04-25T10:26:46;0.93;;;0.60;;
33188;SDS011;52601;53.070;10.600;2023-04-25T10:29:34;4.60;;;1.15;;
33188;SDS011;52601;53.070;10.600;2023-04-25T10:32:20;4.68;;;0.73;;
33188;SDS011;52601;53.070;10.600;2023-04-25T10:35:09;1.27;;;0.75;;
33188;SDS011;52601;53.070;10.600;2023-04-25T10:38:09;2.97;;;0.40;;
33188;SDS011;52601;53.070;10.600;2023-04-25T10:41:02;2.78;;;0.65;;
33188;SDS011;52601;53.070;10.600;2023-04-25T10:43:59;4.28;;;0.80;;
33188;SDS011;52601;53.070;10.600;2023-04-25T10:46:46;2.78;;;0.90;;
33188;SDS011;52601;53.070;10.600;2023-04-25T10:49:33;2.60;;;1.00;;
33188;SDS011;52601;53.070;10.600;2023-04-25T10:52:26;10.02;;;1.23;;
33188;SDS011;52601;53.070;10.600;2023-04-25T10:55:13;2.25;;;0.52;;
33188;SDS011;52601;53.070;10.600;2023-04-25T10:57:58;2.42;;;0.88;;
33188;SDS011;52601;53.070;10.600;2023-04-25T11:00:46;2.30;;;0.77;;
33188;SDS011;52601;53.070;10.600;2023-04-25T11:03:42;4.95;;;0.80;;
33188;SDS011;52601;53.070;10.600;2023-04-25T11:06:29;2.85;;;1.17;;
33188;SDS011;52601;53.070;10.600;2023-04-25T11:09:45;1.90;;;0.60;;
33188;SDS011;52601;53.070;10.600;2023-04-25T11:12:31;7.13;;;1.15;;
33188;SDS011;52601;53.070;10.600;2023-04-25T11:15:17;3.22;;;1.17;;
33188;SDS011;52601;53.070;10.600;2023-04-25T11:18:02;1.50;;;0.77;;
33188;SDS011;52601;53.070;10.600;2023-04-25T11:20:48;1.85;;;0.60;;
33188;SDS011;52601;53.070;10.600;2023-04-25T11:23:34;3.60;;;0.33;;
33188;SDS011;52601;53.070;10.600;2023-04-25T11:26:20;2.30;;;0.77;;
33188;SDS011;52601;53.070;10.600;2023-04-25T11:29:07;4.40;;;1.52;;
33188;SDS011;52601;53.070;10.600;2023-04-25T11:31:52;2.55;;;0.85;;
33188;SDS011;52601;53.070;10.600;2023-04-25T11:34:43;5.57;;;1.30;;
33188;SDS011;52601;53.070;10.600;2023-04-25T11:37:30;5.57;;;1.00;;
33188;SDS011;52601;53.070;10.600;2023-04-25T11:40:15;1.00;;;0.70;;
33188;SDS011;52601;53.070;10.600;2023-04-25T11:43:01;0.57;;;0.50;;
33188;SDS011;52601;53.070;10.600;2023-04-25T11:45:47;1.57;;;0.90;;
33188;SDS011;52601;53.070;10.600;2023-04-25T11:48:40;2.20;;;1.00;;
33188;SDS011;52601;53.070;10.600;2023-04-25T11:51:27;1.95;;;0.95;;
33188;SDS011;52601;53.070;10.600;2023-04-25T11:54:12;2.00;;;0.57;;
33188;SDS011;52601;53.070;10.600;2023-04-25T11:56:58;1.27;;;0.82;;
33188;SDS011;52601;53.070;10.600;2023-04-25T11:59:44;3.55;;;0.68;;
33188;SDS011;52601;53.070;10.600;2023-04-25T12:02:30;1.30;;;0.82;;
33188;SDS011;52601;53.070;10.600;2023-04-25T12:05:15;0.80;;;0.60;;
33188;SDS011;52601;53.070;10.600;2023-04-25T12:08:17;3.05;;;1.00;;
33188;SDS011;52601;53.070;10.600;2023-04-25T12:11:02;3.30;;;0.82;;
33188;SDS011;52601;53.070;10.600;2023-04-25T12:13:51;3.95;;;1.10;;
33188;SDS011;52601;53.070;10.600;2023-04-25T12:16:41;2.42;;;1.02;;
33188;SDS011;52601;53.070;10.600;2023-04-25T12:19:31;0.63;;;0.40;;
33188;SDS011;52601;53.070;10.600;2023-04-25T12:22:19;2.33;;;0.98;;
33188;SDS011;52601;53.070;10.600;2023-04-25T12:25:07;1.88;;;1.08;;
33188;SDS011;52601;53.070;10.600;2023-04-25T12:27:53;1.63;;;0.75;;
33188;SDS011;52601;53.070;10.600;2023-04-25T12:30:52;8.00;;;1.05;;
33188;SDS011;52601;53.070;10.600;2023-04-25T12:33:48;3.30;;;1.08;;
33188;SDS011;52601;53.070;10.600;2023-04-25T12:36:34;5.10;;;1.10;;
33188;SDS011;52601;53.070;10.600;2023-04-25T12:42:06;2.25;;;0.90;;
33188;SDS011;52601;53.070;10.600;2023-04-25T12:44:57;2.85;;;0.80;;
33188;SDS011;52601;53.070;10.600;2023-04-25T12:47:43;3.78;;;0.65;;
33188;SDS011;52601;53.070;10.600;2023-04-25T12:50:29;1.05;;;0.47;;
33188;SDS011;52601;53.070;10.600;2023-04-25T12:53:17;0.73;;;0.50;;
33188;SDS011;52601;53.070;10.600;2023-04-25T12:56:07;2.03;;;0.55;;
33188;SDS011;52601;53.070;10.600;2023-04-25T12:58:53;1.33;;;0.60;;
33188;SDS011;52601;53.070;10.600;2023-04-25T13:01:38;7.33;;;0.87;;
33188;SDS011;52601;53.070;10.600;2023-04-25T13:04:24;2.00;;;1.15;;
33188;SDS011;52601;53.070;10.600;2023-04-25T13:07:10;2.67;;;0.88;;
33188;SDS011;52601;53.070;10.600;2023-04-25T13:12:41;4.00;;;0.80;;
33188;SDS011;52601;53.070;10.600;2023-04-25T13:15:26;3.43;;;0.57;;
33188;SDS011;52601;53.070;10.600;2023-04-25T13:18:12;4.15;;;0.90;;
33188;SDS011;52601;53.070;10.600;2023-04-25T13:20:57;1.08;;;0.80;;
33188;SDS011;52601;53.070;10.600;2023-04-25T13:23:44;1.50;;;0.55;;
33188;SDS011;52601;53.070;10.600;2023-04-25T13:26:31;2.05;;;0.50;;
33188;SDS011;52601;53.070;10.600;2023-04-25T13:29:17;1.33;;;0.75;;
33188;SDS011;52601;53.070;10.600;2023-04-25T13:32:02;2.00;;;0.60;;
33188;SDS011;52601;53.070;10.600;2023-04-25T13:34:47;0.55;;;0.35;;
33188;SDS011;52601;53.070;10.600;2023-04-25T13:37:33;0.73;;;0.43;;
33188;SDS011;52601;53.070;10.600;2023-04-25T13:40:19;1.73;;;0.80;;
33188;SDS011;52601;53.070;10.600;2023-04-25T13:43:06;3.30;;;0.82;;
33188;SDS011;52601;53.070;10.600;2023-04-25T13:45:52;1.85;;;0.50;;
33188;SDS011;52601;53.070;10.600;2023-04-25T13:48:37;1.57;;;0.60;;
33188;SDS011;52601;53.070;10.600;2023-04-25T13:51:23;1.40;;;0.70;;
33188;SDS011;52601;53.070;10.600;2023-04-25T13:54:08;1.33;;;0.30;;
33188;SDS011;52601;53.070;10.600;2023-04-25T13:56:54;1.02;;;0.52;;
33188;SDS011;52601;53.070;10.600;2023-04-25T13:59:43;1.48;;;0.40;;
33188;SDS011;52601;53.070;10.600;2023-04-25T14:02:28;2.33;;;0.35;;
33188;SDS011;52601;53.070;10.600;2023-04-25T14:05:14;0.80;;;0.60;;
33188;SDS011;52601;53.070;10.600;2023-04-25T14:08:00;2.47;;;0.65;;
33188;SDS011;52601;53.070;10.600;2023-04-25T14:10:46;5.53;;;0.65;;
33188;SDS011;52601;53.070;10.600;2023-04-25T14:13:31;2.35;;;0.98;;
33188;SDS011;52601;53.070;10.600;2023-04-25T14:16:17;0.95;;;0.32;;
33188;SDS011;52601;53.070;10.600;2023-04-25T14:19:02;2.73;;;0.87;;
33188;SDS011;52601;53.070;10.600;2023-04-25T14:21:48;1.73;;;0.60;;
33188;SDS011;52601;53.070;10.600;2023-04-25T14:24:34;2.00;;;0.47;;
33188;SDS011;52601;53.070;10.600;2023-04-25T14:27:19;0.80;;;0.50;;
33188;SDS011;52601;53.070;10.600;2023-04-25T14:30:05;1.55;;;0.35;;
33188;SDS011;52601;53.070;10.600;2023-04-25T14:32:51;2.30;;;0.50;;
33188;SDS011;52601;53.070;10.600;2023-04-25T14:35:37;0.93;;;0.30;;
33188;SDS011;52601;53.070;10.600;2023-04-25T14:38:23;1.47;;;0.57;;
33188;SDS011;52601;53.070;10.600;2023-04-25T14:41:10;1.42;;;0.80;;
33188;SDS011;52601;53.070;10.600;2023-04-25T14:43:56;1.33;;;0.65;;
33188;SDS011;52601;53.070;10.600;2023-04-25T14:46:42;1.35;;;0.60;;
33188;SDS011;52601;53.070;10.600;2023-04-25T14:49:28;2.25;;;0.65;;
33188;SDS011;52601;53.070;10.600;2023-04-25T14:52:14;3.42;;;0.80;;
33188;SDS011;52601;53.070;10.600;2023-04-25T14:55:00;0.60;;;0.57;;
33188;SDS011;52601;53.070;10.600;2023-04-25T14:57:50;1.23;;;0.70;;
33188;SDS011;52601;53.070;10.600;2023-04-25T15:00:36;7.20;;;0.93;;
33188;SDS011;52601;53.070;10.600;2023-04-25T15:03:26;0.65;;;0.40;;
33188;SDS011;52601;53.070;10.600;2023-04-25T15:06:12;2.78;;;0.73;;
33188;SDS011;52601;53.070;10.600;2023-04-25T15:08:57;2.67;;;0.57;;
33188;SDS011;52601;53.070;10.600;2023-04-25T15:11:43;0.93;;;0.70;;
33188;SDS011;52601;53.070;10.600;2023-04-25T15:14:28;0.60;;;0.35;;
33188;SDS011;52601;53.070;10.600;2023-04-25T15:17:14;0.70;;;0.60;;
33188;SDS011;52601;53.070;10.600;2023-04-25T15:20:00;2.55;;;0.60;;
33188;SDS011;52601;53.070;10.600;2023-04-25T15:22:45;1.95;;;0.65;;
33188;SDS011;52601;53.070;10.600;2023-04-25T15:25:34;0.93;;;0.50;;
33188;SDS011;52601;53.070;10.600;2023-04-25T15:28:19;0.70;;;0.30;;
33188;SDS011;52601;53.070;10.600;2023-04-25T15:31:06;0.73;;;0.43;;
33188;SDS011;52601;53.070;10.600;2023-04-25T15:33:52;2.40;;;0.95;;
33188;SDS011;52601;53.070;10.600;2023-04-25T15:36:38;1.10;;;0.82;;
33188;SDS011;52601;53.070;10.600;2023-04-25T15:39:23;3.80;;;0.75;;
33188;SDS011;52601;53.070;10.600;2023-04-25T15:42:08;1.17;;;0.68;;
33188;SDS011;52601;53.070;10.600;2023-04-25T15:44:53;1.20;;;0.55;;
33188;SDS011;52601;53.070;10.600;2023-04-25T15:47:39;2.00;;;0.60;;
33188;SDS011;52601;53.070;10.600;2023-04-25T15:50:25;1.75;;;0.88;;
33188;SDS011;52601;53.070;10.600;2023-04-25T15:53:11;4.97;;;1.07;;
33188;SDS011;52601;53.070;10.600;2023-04-25T15:55:56;2.75;;;0.77;;
33188;SDS011;52601;53.070;10.600;2023-04-25T15:58:42;0.55;;;0.55;;
33188;SDS011;52601;53.070;10.600;2023-04-25T16:01:28;2.13;;;1.00;;
33188;SDS011;52601;53.070;10.600;2023-04-25T16:04:15;4.28;;;0.75;;
33188;SDS011;52601;53.070;10.600;2023-04-25T16:07:01;1.77;;;0.73;;
33188;SDS011;52601;53.070;10.600;2023-04-25T16:09:47;1.40;;;0.77;;
33188;SDS011;52601;53.070;10.600;2023-04-25T16:12:33;1.88;;;0.75;;
33188;SDS011;52601;53.070;10.600;2023-04-25T16:15:19;1.08;;;0.73;;
33188;SDS011;52601;53.070;10.600;2023-04-25T16:18:05;1.80;;;0.80;;
33188;SDS011;52601;53.070;10.600;2023-04-25T16:20:50;1.90;;;0.60;;
33188;SDS011;52601;53.070;10.600;2023-04-25T16:23:36;4.45;;;0.90;;
33188;SDS011;52601;53.070;10.600;2023-04-25T16:26:21;2.28;;;0.63;;
33188;SDS011;52601;53.070;10.600;2023-04-25T16:29:07;2.67;;;0.93;;
33188;SDS011;52601;53.070;10.600;2023-04-25T16:31:52;1.75;;;0.80;;
33188;SDS011;52601;53.070;10.600;2023-04-25T16:34:38;1.00;;;0.70;;
33188;SDS011;52601;53.070;10.600;2023-04-25T16:37:23;1.88;;;0.90;;
33188;SDS011;52601;53.070;10.600;2023-04-25T16:40:09;1.60;;;0.40;;
33188;SDS011;52601;53.070;10.600;2023-04-25T16:42:55;2.63;;;0.50;;
33188;SDS011;52601;53.070;10.600;2023-04-25T16:45:41;1.88;;;0.60;;
33188;SDS011;52601;53.070;10.600;2023-04-25T16:48:27;5.07;;;0.73;;
33188;SDS011;52601;53.070;10.600;2023-04-25T16:51:12;2.17;;;0.60;;
33188;SDS011;52601;53.070;10.600;2023-04-25T16:53:58;1.20;;;0.70;;
33188;SDS011;52601;53.070;10.600;2023-04-25T16:56:44;0.77;;;0.50;;